Dati Storici

Data ora Umidita' aria (%) Temperatura aria (°C) Rad globale (W/m²) Gonioanemometro (°) Tacoanemometro (m/s) Pioggia (mm)
03-11-2012 04:10 96.6 % 7.956 1.912 258.843 0.002 0
03-11-2012 04:00 96.8 % 8.019 2.18 327.981 0.278 0
03-11-2012 03:50 96.4 % 7.778 1.821 327.695 0.635 0
03-11-2012 03:40 96.3 % 7.681 2.013 26.831 0.136 0
03-11-2012 03:30 96.2 % 7.684 1.846 1.382 0.008 0
03-11-2012 03:20 96.1 % 7.69 1.743 340.133 -0.002 0
03-11-2012 03:10 96.1 % 7.857 2.052 220.489 0.43 0
03-11-2012 03:00 96.2 % 7.97 2.372 276.675 0.301 0
03-11-2012 02:50 96.1 % 7.969 3.129 270.901 0.915 0
03-11-2012 02:40 96.2 % 7.955 3.229 343.274 1.52 0
03-11-2012 02:30 96 % 8.173 1.381 43.662 1.633 0
03-11-2012 02:20 96 % 8.074 1.343 235.955 0.417 0
03-11-2012 02:10 96 % 8.204 1.535 242.632 0.498 0
03-11-2012 02:00 95.7 % 8.199 1.894 244.974 0.466 0
03-11-2012 01:50 95.9 % 8.478 1.625 229.248 0.676 0
03-11-2012 01:40 96.1 % 8.858 1.689 289.754 0.504 0
03-11-2012 01:30 95.7 % 8.744 1.54 222.262 0.398 0
03-11-2012 01:20 95.8 % 9.013 1.758 243.745 0.383 0
03-11-2012 01:10 95.7 % 9.133 1.399 226.52 0.385 0
03-11-2012 01:00 95.9 % 9.325 1.399 247.955 -0.006 0

I dati sono presentati in modo automatico a scopo informativo. In seguito a verifica i dati possono subire modifiche o essere invalidati e non riportati negli archivi definitivi.